Time;durP1;ratioP1;P1;durP2;ratioP2;P2;SDS_P1;SDS_P2;PMS_P1;PMS_P2;Temp;Humidity;BMP_temperature;BMP_pressure;BME280_temperature;BME280_humidity;BME280_pressure;Samples;Min_cycle;Max_cycle;Signal;HPM_P1;HPM_P2
2023/05/18 00:02:16;;;;;;;8.63;3.17;;;9.40;97.20;;;;;;4971195;28;20445;-74
2023/05/18 00:04:47;;;;;;;7.17;2.90;;;9.40;97.20;;;;;;4969586;28;20473;-74
2023/05/18 00:07:15;;;;;;;7.43;3.03;;;9.40;97.20;;;;;;4971012;28;20976;-74
2023/05/18 00:09:48;;;;;;;7.20;3.07;;;9.40;97.30;;;;;;4963948;29;20513;-73
2023/05/18 00:12:18;;;;;;;8.40;3.33;;;9.40;97.30;;;;;;4971062;29;20486;-73
2023/05/18 00:14:47;;;;;;;9.40;3.83;;;9.40;97.30;;;;;;4971832;29;20824;-73
2023/05/18 00:17:16;;;;;;;9.43;4.00;;;9.40;97.40;;;;;;4969605;28;20497;-74
2023/05/18 00:19:46;;;;;;;10.23;4.30;;;9.40;97.50;;;;;;4965628;28;20935;-73
2023/05/18 00:22:16;;;;;;;8.40;3.90;;;9.40;97.40;;;;;;4956760;29;20449;-74
2023/05/18 00:24:46;;;;;;;6.47;3.30;;;9.40;97.40;;;;;;4965246;28;20465;-73
2023/05/18 00:27:15;;;;;;;10.07;3.40;;;9.30;97.40;;;;;;4977836;28;20529;-72
2023/05/18 00:29:43;;;;;;;9.80;4.33;;;9.30;97.50;;;;;;4975946;28;20506;-73
2023/05/18 00:32:12;;;;;;;8.17;3.50;;;9.30;97.60;;;;;;4981306;28;20453;-74
2023/05/18 00:34:42;;;;;;;7.33;3.73;;;9.30;97.60;;;;;;4986084;28;20453;-73
2023/05/18 00:37:15;;;;;;;9.37;3.63;;;9.40;97.70;;;;;;4988049;28;20545;-74
2023/05/18 00:39:54;;;;;;;11.10;3.77;;;9.40;97.70;;;;;;4988173;28;20450;-73
2023/05/18 00:42:28;;;;;;;9.87;3.80;;;9.30;97.70;;;;;;4987403;28;20500;-73
2023/05/18 00:44:56;;;;;;;13.13;4.30;;;9.30;97.70;;;;;;4984673;28;20927;-75
2023/05/18 00:47:27;;;;;;;9.03;3.60;;;9.30;97.70;;;;;;4985025;28;20452;-74
2023/05/18 00:49:59;;;;;;;10.07;4.20;;;9.30;97.70;;;;;;4986681;28;20433;-74
2023/05/18 00:52:31;;;;;;;8.93;3.63;;;9.30;97.70;;;;;;4982218;28;20450;-74
2023/05/18 00:55:03;;;;;;;6.37;3.20;;;9.30;97.70;;;;;;4983946;28;20472;-71
2023/05/18 00:57:35;;;;;;;9.13;3.80;;;9.30;97.70;;;;;;4986800;28;20461;-73
2023/05/18 01:00:06;;;;;;;7.07;3.73;;;9.30;97.70;;;;;;4982427;28;20502;-73
2023/05/18 01:02:41;;;;;;;7.63;3.27;;;9.30;97.70;;;;;;4975797;28;20450;-73
2023/05/18 01:05:11;;;;;;;10.50;4.00;;;9.30;97.80;;;;;;4983756;28;20830;-73
2023/05/18 01:07:41;;;;;;;10.03;3.20;;;9.30;97.80;;;;;;4977938;28;20509;-73
2023/05/18 01:10:13;;;;;;;12.73;3.80;;;9.30;97.80;;;;;;4978170;28;20836;-73
2023/05/18 01:12:45;;;;;;;7.60;3.40;;;9.30;97.80;;;;;;4977408;28;20429;-73
2023/05/18 01:15:16;;;;;;;9.60;4.00;;;9.30;97.80;;;;;;4979457;28;20513;-74
2023/05/18 01:18:13;;;;;;;7.30;3.50;;;9.30;97.80;;;;;;4987916;28;20556;-73
2023/05/18 01:20:58;;;;;;;9.83;3.93;;;9.30;97.90;;;;;;4991648;28;20430;-73
2023/05/18 01:23:51;;;;;;;7.10;3.67;;;9.20;97.80;;;;;;4990758;28;20978;-73
2023/05/18 01:26:30;;;;;;;8.97;4.70;;;9.20;97.90;;;;;;4989656;28;20457;-73
2023/05/18 01:29:07;;;;;;;7.17;3.90;;;9.20;97.90;;;;;;4988157;28;20442;-74
2023/05/18 01:31:39;;;;;;;8.20;3.20;;;9.20;97.90;;;;;;4987442;28;20438;-73
2023/05/18 01:34:11;;;;;;;7.47;4.20;;;9.20;97.90;;;;;;4972770;28;20513;-73
2023/05/18 01:36:41;;;;;;;7.83;3.50;;;9.20;97.90;;;;;;4987737;28;20422;-73
2023/05/18 01:39:13;;;;;;;9.50;3.80;;;9.20;98.00;;;;;;4988403;28;20548;-73
2023/05/18 01:41:55;;;;;;;9.60;3.43;;;9.10;97.90;;;;;;4989818;28;20832;-73
2023/05/18 01:44:35;;;;;;;9.47;3.40;;;9.10;97.90;;;;;;4990050;28;20426;-74
2023/05/18 01:47:13;;;;;;;7.00;3.37;;;9.10;97.90;;;;;;4988404;28;20433;-73
2023/05/18 01:50:01;;;;;;;9.00;3.70;;;9.10;97.90;;;;;;4988144;28;20494;-73
2023/05/18 01:52:36;;;;;;;8.87;3.80;;;9.10;98.00;;;;;;4985913;28;20481;-73
2023/05/18 01:55:07;;;;;;;10.33;3.90;;;9.10;98.00;;;;;;4978225;28;20978;-74
2023/05/18 01:57:41;;;;;;;9.27;3.50;;;9.10;98.00;;;;;;4981294;28;20471;-73
2023/05/18 02:00:15;;;;;;;9.07;3.77;;;9.10;98.00;;;;;;4980874;28;20532;-73
2023/05/18 02:02:47;;;;;;;5.40;2.83;;;9.00;98.00;;;;;;4988864;28;20426;-73
2023/05/18 02:05:21;;;;;;;8.63;3.43;;;9.00;98.00;;;;;;4988588;28;20484;-73
2023/05/18 02:07:52;;;;;;;7.40;3.00;;;9.00;98.00;;;;;;4987794;28;20449;-73
2023/05/18 02:10:27;;;;;;;9.47;3.67;;;9.00;98.00;;;;;;4986538;28;20445;-72
2023/05/18 02:12:58;;;;;;;9.00;3.43;;;9.00;98.00;;;;;;4983368;28;20508;-73
2023/05/18 02:15:26;;;;;;;6.43;3.27;;;9.00;98.10;;;;;;4980763;28;20536;-72
2023/05/18 02:17:57;;;;;;;6.90;3.27;;;9.00;98.10;;;;;;4985142;28;20584;-73
2023/05/18 02:20:31;;;;;;;6.13;3.27;;;9.00;98.10;;;;;;4986539;28;20930;-73
2023/05/18 02:22:59;;;;;;;6.97;2.80;;;9.00;98.40;;;;;;4982431;28;20426;-73
2023/05/18 02:25:28;;;;;;;7.37;3.20;;;9.00;98.10;;;;;;4973541;28;20474;-72
2023/05/18 02:27:59;;;;;;;9.03;3.00;;;9.00;98.10;;;;;;4975474;28;20448;-72
2023/05/18 02:30:28;;;;;;;8.47;3.67;;;9.00;98.10;;;;;;4974766;28;20821;-72
2023/05/18 02:32:56;;;;;;;9.20;3.97;;;9.00;98.10;;;;;;4973662;28;20948;-72
2023/05/18 02:35:26;;;;;;;6.50;3.70;;;9.00;98.00;;;;;;4969257;28;20553;-72
2023/05/18 02:37:57;;;;;;;10.70;3.57;;;8.90;97.90;;;;;;4972037;28;20466;-72
2023/05/18 02:40:25;;;;;;;10.37;4.00;;;8.90;97.90;;;;;;4966342;28;20456;-72
2023/05/18 02:42:53;;;;;;;7.43;3.00;;;8.90;97.90;;;;;;4958913;28;20450;-72
2023/05/18 02:45:22;;;;;;;7.70;3.80;;;8.90;97.90;;;;;;4954795;29;20466;-72
2023/05/18 02:47:53;;;;;;;9.60;3.70;;;8.90;98.00;;;;;;4962933;29;20465;-72
2023/05/18 02:50:23;;;;;;;9.63;3.83;;;8.90;98.00;;;;;;4965259;29;20438;-73
2023/05/18 02:53:03;;;;;;;9.10;3.53;;;8.90;98.10;;;;;;4962028;29;20450;-73
2023/05/18 02:55:36;;;;;;;7.30;4.00;;;8.90;98.10;;;;;;4964455;29;20620;-73
2023/05/18 02:58:16;;;;;;;7.50;4.20;;;8.90;98.20;;;;;;4969927;29;20477;-73
2023/05/18 03:01:07;;;;;;;9.20;4.50;;;8.90;98.10;;;;;;4967611;29;20489;-73
2023/05/18 03:03:46;;;;;;;10.33;4.07;;;8.90;98.10;;;;;;4969232;29;20438;-73
2023/05/18 03:06:25;;;;;;;7.70;3.70;;;8.90;98.10;;;;;;4966423;29;20549;-73
2023/05/18 03:09:00;;;;;;;7.60;4.60;;;8.90;98.10;;;;;;4966247;29;20438;-72
2023/05/18 03:11:53;;;;;;;10.47;3.63;;;8.90;98.10;;;;;;4964244;29;20442;-73
2023/05/18 03:14:23;;;;;;;8.90;4.33;;;8.90;98.10;;;;;;4964805;29;20442;-74
2023/05/18 03:17:00;;;;;;;8.40;3.67;;;8.90;98.20;;;;;;4964356;29;20455;-73
2023/05/18 03:19:33;;;;;;;8.67;4.13;;;8.90;98.20;;;;;;4967486;29;20980;-73
2023/05/18 03:22:10;;;;;;;6.87;3.30;;;8.90;98.30;;;;;;4970411;29;20450;-73
2023/05/18 03:24:54;;;;;;;8.50;3.67;;;8.90;98.30;;;;;;4971074;29;20515;-72
2023/05/18 03:27:26;;;;;;;7.63;4.17;;;8.90;98.40;;;;;;4966475;29;20534;-72
2023/05/18 03:29:58;;;;;;;10.30;4.80;;;8.90;98.40;;;;;;4966531;29;20936;-73
2023/05/18 03:32:30;;;;;;;9.50;3.87;;;8.90;98.40;;;;;;4965145;29;20455;-73
2023/05/18 03:35:00;;;;;;;8.47;3.83;;;8.90;98.50;;;;;;4965723;29;20510;-73
2023/05/18 03:37:31;;;;;;;12.17;3.90;;;8.90;98.50;;;;;;4965154;28;20423;-72
2023/05/18 03:40:17;;;;;;;7.17;3.70;;;8.90;98.50;;;;;;4985057;28;20549;-73
2023/05/18 03:42:50;;;;;;;9.63;3.90;;;8.90;98.50;;;;;;4968441;28;20520;-73
2023/05/18 03:45:24;;;;;;;8.23;3.67;;;8.90;98.60;;;;;;4983072;28;21005;-72
2023/05/18 03:47:58;;;;;;;8.73;3.70;;;8.90;98.60;;;;;;4972568;28;20480;-73
2023/05/18 03:50:32;;;;;;;8.83;4.43;;;8.90;98.60;;;;;;4966273;29;20435;-73
2023/05/18 03:53:06;;;;;;;12.63;3.93;;;8.90;98.50;;;;;;4969340;28;20458;-72
2023/05/18 03:55:43;;;;;;;10.87;4.80;;;8.90;98.40;;;;;;4970156;28;20947;-73
2023/05/18 03:58:12;;;;;;;8.83;4.67;;;8.90;98.40;;;;;;4954095;29;20537;-73
2023/05/18 04:00:43;;;;;;;7.80;5.10;;;8.90;98.40;;;;;;4969261;28;20470;-73
2023/05/18 04:03:17;;;;;;;9.97;4.97;;;8.90;98.40;;;;;;4970512;28;20423;-74
2023/05/18 04:05:46;;;;;;;6.90;4.23;;;8.90;98.40;;;;;;4972763;29;20454;-73
2023/05/18 04:08:15;;;;;;;8.43;4.70;;;8.90;98.40;;;;;;4973413;29;20446;-74
2023/05/18 04:10:49;;;;;;;7.97;4.60;;;8.90;98.40;;;;;;4973725;29;20431;-73
2023/05/18 04:13:26;;;;;;;9.03;4.40;;;8.90;98.30;;;;;;4972275;29;20439;-73
2023/05/18 04:16:02;;;;;;;12.77;4.60;;;8.90;98.40;;;;;;4970027;28;20468;-73
2023/05/18 04:18:32;;;;;;;8.37;4.10;;;8.90;98.40;;;;;;4972807;29;20434;-73
2023/05/18 04:21:04;;;;;;;6.73;3.63;;;9.00;98.60;;;;;;4969620;29;20443;-73
2023/05/18 04:23:37;;;;;;;8.77;3.67;;;9.00;98.60;;;;;;4972790;29;20450;-73
2023/05/18 04:26:09;;;;;;;8.00;3.77;;;9.00;98.60;;;;;;4970419;29;20473;-73
2023/05/18 04:28:47;;;;;;;9.30;4.30;;;9.00;98.60;;;;;;4970472;29;20419;-73
2023/05/18 04:31:35;;;;;;;7.43;3.70;;;9.00;98.60;;;;;;4970971;29;20430;-72
2023/05/18 04:34:12;;;;;;;8.50;3.43;;;9.00;98.60;;;;;;4970445;29;20470;-73
2023/05/18 04:36:43;;;;;;;8.53;4.50;;;9.00;98.60;;;;;;4972947;29;20422;-73
2023/05/18 04:39:20;;;;;;;8.73;3.77;;;9.00;98.60;;;;;;4969871;29;20561;-73
2023/05/18 04:41:57;;;;;;;7.93;3.70;;;9.00;98.60;;;;;;4970155;28;20450;-72
2023/05/18 04:44:44;;;;;;;10.07;4.10;;;9.00;98.60;;;;;;4973595;29;20459;-73
2023/05/18 04:47:12;;;;;;;8.20;3.83;;;9.00;98.50;;;;;;4968033;29;20423;-72
2023/05/18 04:49:42;;;;;;;9.63;4.13;;;9.00;98.50;;;;;;4956044;29;20450;-72
2023/05/18 04:52:10;;;;;;;7.60;4.00;;;9.10;98.60;;;;;;4957664;29;20831;-72
2023/05/18 04:54:39;;;;;;;10.40;4.30;;;9.10;98.60;;;;;;4955995;29;21011;-72
2023/05/18 04:57:08;;;;;;;8.40;3.90;;;9.10;98.70;;;;;;4956165;29;20450;-71
2023/05/18 04:59:36;;;;;;;8.30;3.80;;;9.10;98.70;;;;;;4957518;29;20516;-72
2023/05/18 05:02:05;;;;;;;8.47;4.30;;;9.10;98.70;;;;;;4956052;29;20975;-72
2023/05/18 05:04:34;;;;;;;13.93;4.33;;;9.20;98.80;;;;;;4955345;28;20525;-72
2023/05/18 05:07:04;;;;;;;9.90;3.60;;;9.20;98.70;;;;;;4955774;29;20450;-72
2023/05/18 05:09:32;;;;;;;9.23;4.20;;;9.20;98.70;;;;;;4957540;29;20485;-72
2023/05/18 05:12:00;;;;;;;9.10;4.10;;;9.20;98.70;;;;;;4955732;29;20480;-72
2023/05/18 05:14:29;;;;;;;9.73;3.93;;;9.20;98.60;;;;;;4955512;29;20450;-72
2023/05/18 05:16:58;;;;;;;9.50;4.17;;;9.20;98.60;;;;;;4955751;29;20455;-72
2023/05/18 05:19:26;;;;;;;6.20;3.50;;;9.30;98.60;;;;;;4955521;29;20489;-72
2023/05/18 05:21:54;;;;;;;8.50;3.10;;;9.30;98.60;;;;;;4955509;29;20864;-72
2023/05/18 05:24:24;;;;;;;9.13;3.90;;;9.30;98.60;;;;;;4955438;29;20456;-72
2023/05/18 05:26:52;;;;;;;9.47;3.10;;;9.30;98.50;;;;;;4955397;29;20489;-72
2023/05/18 05:29:20;;;;;;;7.70;3.20;;;9.30;98.40;;;;;;4956607;29;20782;-72
2023/05/18 05:31:48;;;;;;;9.70;3.30;;;9.30;98.30;;;;;;4956666;29;20438;-72
2023/05/18 05:34:17;;;;;;;7.27;3.20;;;9.30;98.30;;;;;;4955306;29;20542;-73
2023/05/18 05:36:45;;;;;;;6.90;2.97;;;9.30;98.30;;;;;;4955407;29;20450;-72
2023/05/18 05:39:13;;;;;;;7.13;3.13;;;9.30;98.30;;;;;;4955099;28;20489;-72
2023/05/18 05:41:42;;;;;;;10.83;3.17;;;9.30;98.30;;;;;;4957293;28;20537;-72
2023/05/18 05:44:11;;;;;;;8.50;3.20;;;9.40;98.30;;;;;;4955072;29;20453;-72
2023/05/18 05:46:39;;;;;;;9.30;2.97;;;9.40;98.30;;;;;;4954841;29;20446;-72
2023/05/18 05:49:09;;;;;;;10.17;3.60;;;9.40;98.30;;;;;;4955162;29;20991;-72
2023/05/18 05:51:38;;;;;;;8.10;3.53;;;9.40;98.50;;;;;;4954763;29;20995;-73
2023/05/18 05:54:06;;;;;;;6.07;3.43;;;9.40;98.20;;;;;;4954696;29;20454;-72
2023/05/18 05:56:37;;;;;;;9.37;3.00;;;9.40;98.20;;;;;;4956155;29;20489;-72
2023/05/18 05:59:07;;;;;;;13.00;3.90;;;9.40;98.10;;;;;;4954739;29;20450;-72
2023/05/18 06:01:35;;;;;;;7.83;3.47;;;9.50;98.10;;;;;;4954931;29;20987;-72
2023/05/18 06:04:05;;;;;;;8.40;3.00;;;9.50;98.00;;;;;;4955878;29;20461;-72
2023/05/18 06:06:33;;;;;;;9.43;3.63;;;9.50;98.00;;;;;;4954460;29;21047;-72
2023/05/18 06:09:03;;;;;;;11.80;3.53;;;9.60;98.00;;;;;;4954447;29;20498;-72
2023/05/18 06:11:31;;;;;;;7.47;3.50;;;9.60;97.90;;;;;;4954348;28;20485;-72
2023/05/18 06:14:00;;;;;;;11.23;3.60;;;9.60;97.80;;;;;;4954194;28;20439;-72
2023/05/18 06:16:29;;;;;;;9.67;3.97;;;9.60;97.70;;;;;;4953773;29;20478;-72
2023/05/18 06:18:58;;;;;;;6.67;3.40;;;9.60;97.70;;;;;;4954226;29;20454;-72
2023/05/18 06:21:26;;;;;;;6.53;3.40;;;9.70;97.70;;;;;;4954310;29;20541;-71
2023/05/18 06:23:56;;;;;;;6.93;3.40;;;9.70;97.60;;;;;;4955050;29;20467;-71
2023/05/18 06:26:45;;;;;;;7.80;3.47;;;9.70;97.60;;;;;;4955130;28;20450;-71
2023/05/18 06:29:36;;;;;;;9.43;4.33;;;9.70;97.60;;;;;;4947381;29;20442;-72
2023/05/18 06:32:17;;;;;;;8.57;3.20;;;9.80;97.50;;;;;;4954086;29;20959;-71
2023/05/18 06:34:52;;;;;;;5.53;3.13;;;9.80;97.40;;;;;;4953906;29;20470;-71
2023/05/18 06:37:21;;;;;;;8.00;3.60;;;9.80;97.40;;;;;;4953983;29;20451;-71
2023/05/18 06:39:49;;;;;;;7.63;3.90;;;9.80;97.40;;;;;;4955062;29;20809;-71
2023/05/18 06:42:17;;;;;;;9.90;4.37;;;9.80;97.40;;;;;;4955478;29;20466;-71
2023/05/18 06:44:51;;;;;;;8.10;3.27;;;9.90;97.40;;;;;;4954140;29;20561;-71
2023/05/18 06:47:24;;;;;;;7.53;3.50;;;9.90;97.30;;;;;;4953938;29;20478;-71
2023/05/18 06:49:53;;;;;;;7.37;3.00;;;9.90;97.10;;;;;;4953746;29;20513;-71
2023/05/18 06:52:21;;;;;;;12.67;3.70;;;9.90;97.10;;;;;;4953678;29;20887;-71
2023/05/18 06:54:51;;;;;;;6.40;2.90;;;9.90;97.10;;;;;;4953682;29;20466;-71
2023/05/18 06:57:19;;;;;;;10.77;3.67;;;10.00;96.60;;;;;;4953708;29;20443;-70
2023/05/18 06:59:52;;;;;;;7.80;3.03;;;10.00;96.60;;;;;;4953581;29;20485;-71
2023/05/18 07:02:21;;;;;;;9.80;3.83;;;10.00;96.60;;;;;;4954264;29;20443;-71
2023/05/18 07:04:50;;;;;;;7.03;3.30;;;10.00;96.60;;;;;;4953827;29;20475;-70
2023/05/18 07:07:19;;;;;;;7.30;3.37;;;10.10;96.60;;;;;;4955013;29;20944;-72
2023/05/18 07:09:48;;;;;;;8.53;3.03;;;10.10;96.50;;;;;;4955290;29;20525;-71
2023/05/18 07:12:16;;;;;;;7.57;3.47;;;10.10;96.50;;;;;;4955067;29;20553;-70
2023/05/18 07:14:45;;;;;;;7.20;3.07;;;10.10;96.40;;;;;;4955478;28;20466;-69
2023/05/18 07:17:13;;;;;;;6.37;2.93;;;10.10;96.30;;;;;;4953766;29;20450;-70
2023/05/18 07:19:41;;;;;;;7.80;3.37;;;10.20;96.30;;;;;;4955241;29;20427;-70
2023/05/18 07:22:11;;;;;;;5.63;3.10;;;10.20;96.40;;;;;;4955016;28;20476;-70
2023/05/18 07:24:39;;;;;;;6.73;3.23;;;10.30;96.30;;;;;;4953630;29;20498;-70
2023/05/18 07:27:07;;;;;;;7.10;3.60;;;10.30;96.20;;;;;;4957472;28;20461;-70
2023/05/18 07:29:35;;;;;;;8.50;3.97;;;10.40;96.20;;;;;;4959244;29;20497;-71
2023/05/18 07:32:04;;;;;;;7.63;3.57;;;10.40;96.20;;;;;;4959536;29;20534;-72
2023/05/18 07:34:32;;;;;;;7.97;3.50;;;10.40;96.40;;;;;;4958743;29;20439;-71
2023/05/18 07:37:00;;;;;;;9.80;4.60;;;10.50;96.10;;;;;;4958987;29;20485;-70
2023/05/18 07:39:30;;;;;;;8.47;4.40;;;10.50;96.00;;;;;;4959315;29;20978;-70
2023/05/18 07:41:59;;;;;;;8.33;4.37;;;10.60;96.20;;;;;;4959046;29;20512;-70
2023/05/18 07:44:27;;;;;;;7.40;3.40;;;10.70;95.90;;;;;;4958614;28;20450;-70
2023/05/18 07:46:55;;;;;;;14.40;3.57;;;10.70;95.70;;;;;;4958570;29;20443;-70
2023/05/18 07:49:24;;;;;;;8.10;4.00;;;10.70;95.60;;;;;;4958844;29;20443;-70
2023/05/18 07:51:52;;;;;;;7.27;4.20;;;10.60;95.60;;;;;;4957182;29;20481;-70
2023/05/18 07:54:20;;;;;;;7.97;3.73;;;10.70;95.70;;;;;;4957284;29;20628;-72
2023/05/18 07:56:50;;;;;;;6.27;3.90;;;10.70;95.80;;;;;;4958309;29;20474;-70
2023/05/18 07:59:18;;;;;;;7.80;3.73;;;10.80;95.80;;;;;;4958363;29;20470;-71
2023/05/18 08:01:47;;;;;;;8.70;4.20;;;10.90;95.80;;;;;;4958456;29;20470;-70
2023/05/18 08:04:16;;;;;;;7.17;3.70;;;11.00;96.10;;;;;;4958948;29;20477;-71
2023/05/18 08:06:44;;;;;;;9.70;4.07;;;11.00;96.00;;;;;;4958533;29;20995;-71
2023/05/18 08:09:12;;;;;;;11.40;4.60;;;11.10;95.70;;;;;;4958384;29;20446;-69
2023/05/18 08:11:40;;;;;;;7.33;3.80;;;11.10;95.60;;;;;;4958107;29;20883;-70
2023/05/18 08:14:10;;;;;;;8.23;5.33;;;11.20;95.60;;;;;;4958288;29;20453;-70
2023/05/18 08:16:38;;;;;;;9.90;4.77;;;11.20;95.60;;;;;;4958132;29;20462;-70
2023/05/18 08:19:06;;;;;;;8.50;5.00;;;11.20;95.50;;;;;;4959371;29;20450;-74
2023/05/18 08:21:35;;;;;;;8.63;4.70;;;11.20;95.50;;;;;;4957491;29;20496;-73
2023/05/18 08:24:03;;;;;;;8.30;4.50;;;11.30;95.50;;;;;;4957078;29;21011;-73
2023/05/18 08:26:31;;;;;;;10.27;4.77;;;11.40;95.60;;;;;;4958204;29;20462;-74
2023/05/18 08:28:59;;;;;;;9.03;4.40;;;11.60;95.80;;;;;;4958401;29;20438;-73
2023/05/18 08:31:29;;;;;;;8.20;5.77;;;11.80;95.70;;;;;;4958245;29;20489;-72
2023/05/18 08:33:58;;;;;;;9.03;5.63;;;12.00;95.80;;;;;;4958314;29;20443;-73
2023/05/18 08:36:26;;;;;;;11.50;4.93;;;12.10;95.80;;;;;;4958020;29;20477;-72
2023/05/18 08:38:54;;;;;;;9.30;6.30;;;12.20;95.80;;;;;;4957178;28;20455;-73
2023/05/18 08:41:29;;;;;;;13.03;5.93;;;12.40;95.70;;;;;;4958568;29;20533;-73
2023/05/18 08:44:01;;;;;;;12.73;7.63;;;12.50;95.60;;;;;;4958440;29;20432;-75
2023/05/18 08:46:34;;;;;;;12.50;10.47;;;12.70;95.40;;;;;;4956321;29;20475;-75
2023/05/18 08:49:04;;;;;;;12.97;8.30;;;12.80;95.40;;;;;;4957545;28;20423;-75
2023/05/18 08:51:35;;;;;;;10.53;7.37;;;12.90;95.30;;;;;;4957784;29;20429;-75
2023/05/18 08:54:05;;;;;;;10.10;6.47;;;13.00;95.20;;;;;;4957946;29;20427;-77
2023/05/18 08:56:33;;;;;;;13.00;6.37;;;13.00;95.30;;;;;;4956068;29;20487;-74
2023/05/18 08:59:07;;;;;;;9.10;5.60;;;13.10;95.30;;;;;;4957301;29;20481;-74
2023/05/18 09:01:37;;;;;;;9.73;4.50;;;13.30;95.30;;;;;;4957645;29;20550;-74
2023/05/18 09:04:06;;;;;;;10.20;5.53;;;13.40;95.30;;;;;;4955946;29;20566;-73
2023/05/18 09:06:35;;;;;;;9.77;4.63;;;13.40;95.10;;;;;;4957861;28;20466;-74
2023/05/18 09:09:05;;;;;;;9.73;5.10;;;13.30;94.80;;;;;;4956979;29;20435;-73
2023/05/18 09:11:35;;;;;;;8.33;5.30;;;13.20;94.70;;;;;;4956896;29;20446;-74
2023/05/18 09:14:03;;;;;;;10.33;5.17;;;13.10;94.70;;;;;;4955576;29;20538;-74
2023/05/18 09:16:31;;;;;;;9.20;4.40;;;13.10;94.70;;;;;;4955315;29;20992;-74
2023/05/18 09:19:09;;;;;;;9.13;5.50;;;13.00;94.70;;;;;;4957045;28;20457;-74
2023/05/18 09:21:39;;;;;;;6.53;4.93;;;13.00;94.70;;;;;;4957621;29;20462;-73
2023/05/18 09:24:08;;;;;;;8.63;5.33;;;13.00;94.70;;;;;;4956913;29;20973;-73
2023/05/18 09:26:36;;;;;;;10.23;5.50;;;13.00;94.70;;;;;;4956517;29;20831;-73
2023/05/18 09:29:15;;;;;;;7.47;5.20;;;13.00;94.70;;;;;;4955211;29;20443;-73
2023/05/18 09:31:45;;;;;;;8.77;5.40;;;13.00;94.70;;;;;;4955136;29;20546;-73
2023/05/18 09:34:15;;;;;;;9.40;5.10;;;13.00;94.70;;;;;;4956468;29;20427;-73
2023/05/18 09:36:48;;;;;;;8.23;4.60;;;13.00;94.50;;;;;;4954978;28;20885;-73
2023/05/18 09:39:16;;;;;;;12.70;5.27;;;13.10;94.40;;;;;;4956606;29;20753;-73
2023/05/18 09:41:44;;;;;;;10.63;5.93;;;13.20;94.50;;;;;;4956119;29;20473;-73
2023/05/18 09:44:12;;;;;;;7.50;5.13;;;13.40;94.60;;;;;;4956232;28;20435;-73
2023/05/18 09:46:41;;;;;;;8.67;4.73;;;13.30;94.50;;;;;;4956411;29;20521;-73
2023/05/18 09:49:09;;;;;;;9.57;5.47;;;13.40;94.60;;;;;;4956003;28;20438;-73
2023/05/18 09:51:39;;;;;;;8.90;5.90;;;13.40;94.50;;;;;;4956046;29;20612;-74
2023/05/18 09:54:09;;;;;;;9.97;5.87;;;13.40;94.40;;;;;;4954996;29;21028;-73
2023/05/18 09:56:38;;;;;;;7.73;5.40;;;13.40;94.40;;;;;;4955914;29;20454;-73
2023/05/18 09:59:11;;;;;;;8.43;6.17;;;13.40;94.40;;;;;;4956235;29;20475;-73
2023/05/18 10:01:55;;;;;;;13.40;6.00;;;13.50;94.60;;;;;;4955949;29;20847;-73
2023/05/18 10:04:34;;;;;;;7.80;5.53;;;13.60;94.60;;;;;;4956389;29;20506;-73
2023/05/18 10:07:09;;;;;;;7.50;5.73;;;13.70;94.50;;;;;;4954513;29;20525;-73
2023/05/18 10:09:38;;;;;;;10.50;6.87;;;13.80;94.50;;;;;;4955565;29;20521;-73
2023/05/18 10:12:11;;;;;;;9.37;7.07;;;13.90;94.50;;;;;;4955515;29;20431;-72
2023/05/18 10:14:41;;;;;;;6.90;5.73;;;14.00;94.30;;;;;;4955612;29;20553;-72
2023/05/18 10:17:11;;;;;;;11.60;6.37;;;14.00;94.10;;;;;;4955268;29;20529;-73
2023/05/18 10:19:45;;;;;;;7.50;5.67;;;14.00;94.20;;;;;;4955485;29;20427;-73
2023/05/18 10:22:16;;;;;;;9.70;5.50;;;14.10;94.20;;;;;;4955317;28;20565;-73
2023/05/18 10:24:50;;;;;;;9.87;5.87;;;14.20;94.20;;;;;;4956211;29;20900;-73
2023/05/18 10:27:26;;;;;;;11.30;5.40;;;14.20;94.10;;;;;;4955639;29;20936;-73
2023/05/18 10:29:57;;;;;;;11.47;5.60;;;14.30;94.10;;;;;;4954087;29;20438;-73
2023/05/18 10:32:28;;;;;;;9.37;5.57;;;14.30;94.10;;;;;;4955654;28;20427;-73
2023/05/18 10:34:57;;;;;;;8.43;6.10;;;14.40;94.50;;;;;;4955384;29;20458;-73
2023/05/18 10:37:29;;;;;;;10.07;5.20;;;14.50;94.30;;;;;;4955244;29;20439;-73
2023/05/18 10:40:00;;;;;;;6.97;5.10;;;14.50;94.10;;;;;;4955181;29;20979;-73
2023/05/18 10:42:30;;;;;;;8.83;5.90;;;14.50;94.20;;;;;;4955124;29;20558;-73
2023/05/18 10:45:00;;;;;;;8.60;4.90;;;14.50;93.90;;;;;;4955096;29;20459;-73
2023/05/18 10:47:29;;;;;;;9.20;6.43;;;14.50;93.70;;;;;;4955236;28;20438;-72
2023/05/18 10:49:59;;;;;;;8.60;5.50;;;14.60;93.70;;;;;;4954051;29;20821;-73
2023/05/18 10:52:31;;;;;;;8.70;4.90;;;14.60;93.70;;;;;;4955652;29;20474;-73
2023/05/18 10:54:59;;;;;;;8.30;5.70;;;14.60;93.60;;;;;;4954932;29;20470;-73
2023/05/18 10:57:34;;;;;;;9.17;6.00;;;14.60;93.60;;;;;;4955100;29;20446;-73
2023/05/18 11:00:04;;;;;;;8.53;6.20;;;14.60;93.70;;;;;;4954444;29;20885;-73
2023/05/18 11:02:34;;;;;;;7.47;6.37;;;14.50;93.70;;;;;;4954557;28;20995;-73
2023/05/18 11:05:06;;;;;;;13.07;8.40;;;14.60;93.80;;;;;;4954979;29;20462;-73
2023/05/18 11:07:36;;;;;;;9.73;6.50;;;14.70;93.80;;;;;;4955160;29;20458;-73
2023/05/18 11:10:09;;;;;;;11.90;7.80;;;14.80;93.80;;;;;;4954401;29;20446;-72
2023/05/18 11:12:39;;;;;;;10.80;7.43;;;14.80;93.70;;;;;;4953680;29;20958;-73
2023/05/18 11:15:09;;;;;;;11.40;8.10;;;14.90;93.70;;;;;;4955051;28;20531;-72
2023/05/18 11:17:37;;;;;;;9.53;7.37;;;14.90;93.60;;;;;;4953456;29;20463;-73
2023/05/18 11:20:17;;;;;;;9.27;6.20;;;15.00;93.60;;;;;;4953441;29;20478;-73
2023/05/18 11:22:48;;;;;;;10.47;7.60;;;15.00;93.50;;;;;;4955223;29;20494;-73
2023/05/18 11:25:39;;;;;;;10.23;8.50;;;15.00;93.60;;;;;;4954927;29;20486;-73
2023/05/18 11:28:09;;;;;;;12.60;7.17;;;15.10;93.50;;;;;;4954928;29;20481;-73
2023/05/18 11:30:49;;;;;;;10.53;7.60;;;15.10;93.60;;;;;;4954625;28;20489;-73
2023/05/18 11:33:23;;;;;;;9.60;7.10;;;15.20;93.40;;;;;;4954871;29;20454;-73
2023/05/18 11:36:01;;;;;;;10.03;6.93;;;15.20;93.50;;;;;;4953243;29;20822;-73
2023/05/18 11:38:52;;;;;;;10.53;7.13;;;15.20;93.50;;;;;;4954830;29;20430;-73
2023/05/18 11:41:31;;;;;;;12.80;7.00;;;15.20;93.40;;;;;;4953542;29;20425;-73
2023/05/18 11:44:15;;;;;;;9.03;6.93;;;15.20;93.40;;;;;;4953392;29;20478;-74
2023/05/18 11:46:55;;;;;;;12.97;7.30;;;15.30;93.40;;;;;;4954609;29;20840;-74
2023/05/18 11:49:25;;;;;;;11.17;7.37;;;15.30;93.40;;;;;;4954667;29;20494;-74
2023/05/18 11:52:15;;;;;;;11.17;7.10;;;15.30;93.50;;;;;;4954399;29;20423;-74
2023/05/18 11:54:46;;;;;;;9.03;7.33;;;15.40;93.40;;;;;;4943792;28;20466;-73
2023/05/18 11:57:16;;;;;;;11.10;8.20;;;15.40;93.40;;;;;;4954406;29;20457;-74
2023/05/18 11:59:47;;;;;;;8.73;7.63;;;15.40;93.40;;;;;;4953095;29;20903;-73
2023/05/18 12:02:21;;;;;;;10.93;6.80;;;15.50;93.30;;;;;;4954315;28;20503;-74
2023/05/18 12:04:52;;;;;;;8.63;6.90;;;15.50;93.20;;;;;;4954217;29;20505;-73
2023/05/18 12:07:21;;;;;;;9.20;7.00;;;15.50;93.10;;;;;;4954341;29;20454;-74
2023/05/18 12:09:51;;;;;;;8.37;6.50;;;15.50;93.10;;;;;;4954156;29;20443;-74
2023/05/18 12:12:19;;;;;;;10.70;7.20;;;15.50;93.10;;;;;;4954136;28;20439;-74
2023/05/18 12:14:55;;;;;;;9.20;6.83;;;15.50;93.20;;;;;;4957328;29;20462;-73
2023/05/18 12:17:23;;;;;;;9.13;6.47;;;15.50;93.00;;;;;;4957845;29;20450;-74
2023/05/18 12:19:51;;;;;;;9.60;6.70;;;15.50;93.00;;;;;;4958439;29;20517;-73
2023/05/18 12:22:20;;;;;;;9.33;6.13;;;15.50;93.10;;;;;;4957578;29;20497;-73
2023/05/18 12:24:53;;;;;;;8.93;6.07;;;15.50;93.20;;;;;;4957617;29;20536;-73
2023/05/18 12:27:21;;;;;;;10.90;6.00;;;15.60;93.10;;;;;;4956166;29;20443;-73
2023/05/18 12:29:50;;;;;;;9.63;6.40;;;15.60;93.10;;;;;;4957426;29;20549;-73
2023/05/18 12:32:19;;;;;;;10.67;5.60;;;15.60;93.00;;;;;;4956236;29;20521;-74
2023/05/18 12:34:47;;;;;;;12.00;5.90;;;15.60;92.90;;;;;;4956341;29;20598;-73
2023/05/18 12:37:16;;;;;;;9.07;6.37;;;15.60;93.00;;;;;;4957670;29;20413;-74
2023/05/18 12:39:44;;;;;;;9.63;6.33;;;15.60;93.10;;;;;;4957176;29;20970;-74
2023/05/18 12:42:15;;;;;;;7.70;5.73;;;15.70;93.00;;;;;;4957178;29;20970;-74
2023/05/18 12:44:44;;;;;;;10.50;6.13;;;15.70;93.00;;;;;;4955772;29;20493;-74
2023/05/18 12:47:13;;;;;;;11.50;6.83;;;15.70;93.00;;;;;;4957378;29;20448;-73
2023/05/18 12:49:47;;;;;;;12.30;6.33;;;15.80;92.90;;;;;;4957036;28;20806;-73
2023/05/18 12:52:16;;;;;;;10.20;6.60;;;15.80;92.80;;;;;;4957068;29;20503;-73
2023/05/18 12:54:58;;;;;;;8.37;5.90;;;15.70;92.70;;;;;;4957160;29;20541;-73
2023/05/18 12:57:29;;;;;;;9.37;4.93;;;15.70;92.60;;;;;;4957297;29;20427;-73
2023/05/18 12:59:58;;;;;;;8.50;5.50;;;15.70;92.60;;;;;;4956467;29;20459;-73
2023/05/18 13:02:34;;;;;;;8.83;6.40;;;15.80;92.70;;;;;;4956920;29;20435;-73
2023/05/18 13:05:07;;;;;;;8.30;6.00;;;15.80;93.00;;;;;;4956894;29;20988;-74
2023/05/18 13:07:36;;;;;;;8.63;6.50;;;15.90;92.80;;;;;;4955533;29;20518;-73
2023/05/18 13:10:12;;;;;;;9.90;5.90;;;16.00;92.80;;;;;;4956743;29;20955;-73
2023/05/18 13:12:43;;;;;;;9.57;5.43;;;16.00;92.80;;;;;;4956880;29;20943;-73
2023/05/18 13:15:14;;;;;;;7.30;5.50;;;16.00;92.80;;;;;;4956889;29;21026;-73